createdAt,value
2022-12-29T07:01:23.089Z,72.51
2022-12-29T07:03:51.031Z,72.61
2022-12-29T07:06:18.710Z,72.48
2022-12-29T07:08:46.395Z,72.25
2022-12-29T07:11:14.140Z,72.15
2022-12-29T07:13:41.959Z,71.97
2022-12-29T07:16:10.716Z,71.88
2022-12-29T07:18:38.520Z,71.65
2022-12-29T07:21:06.686Z,71.13
2022-12-29T07:23:34.991Z,71.07
2022-12-29T07:26:08.357Z,70.88
2022-12-29T07:28:36.901Z,70.94
2022-12-29T07:31:05.411Z,70.95
2022-12-29T07:33:33.460Z,71.04
2022-12-29T07:36:01.697Z,71.21
2022-12-29T07:38:29.799Z,71.25
2022-12-29T07:40:59.512Z,70.91
2022-12-29T07:43:27.302Z,70.37
2022-12-29T07:45:55.488Z,70.49
2022-12-29T07:48:23.432Z,70.06
2022-12-29T07:50:52.851Z,70.08
2022-12-29T07:53:20.780Z,69.69
2022-12-29T07:55:48.544Z,69.47
2022-12-29T07:58:16.251Z,69.80
2022-12-29T08:00:43.968Z,69.60
2022-12-29T08:03:11.729Z,69.22
2022-12-29T08:05:40.333Z,69.56
2022-12-29T08:08:07.969Z,69.34
2022-12-29T08:10:35.661Z,69.27
2022-12-29T08:13:03.321Z,69.19
2022-12-29T08:15:32.746Z,69.17
2022-12-29T08:18:00.842Z,68.90
2022-12-29T08:20:28.835Z,69.00
2022-12-29T08:22:57.204Z,68.65
2022-12-29T08:25:24.910Z,68.77
2022-12-29T08:27:52.655Z,68.78
2022-12-29T08:30:20.352Z,68.42
2022-12-29T08:32:48.091Z,68.56
2022-12-29T08:35:16.027Z,68.55
2022-12-29T08:37:44.027Z,67.86
2022-12-29T08:40:12.111Z,67.93
2022-12-29T08:42:41.092Z,67.75
2022-12-29T08:45:09.853Z,67.91
2022-12-29T08:47:37.663Z,67.58
2022-12-29T08:50:06.330Z,67.77
2022-12-29T08:52:34.192Z,67.33
2022-12-29T08:55:02.140Z,67.61
2022-12-29T08:57:30.118Z,67.18
2022-12-29T08:59:57.869Z,67.02
2022-12-29T09:02:25.627Z,67.43
2022-12-29T09:04:53.591Z,67.50
2022-12-29T09:07:21.678Z,67.60
2022-12-29T09:09:49.488Z,67.31
2022-12-29T09:12:18.522Z,66.97
2022-12-29T09:14:49.465Z,67.04
2022-12-29T09:17:35.972Z,66.37
2022-12-29T09:20:04.811Z,66.71
2022-12-29T09:22:32.794Z,66.10
2022-12-29T09:25:00.561Z,65.84
2022-12-29T09:27:28.525Z,66.47
2022-12-29T09:29:56.412Z,65.99
2022-12-29T09:32:24.973Z,66.18
2022-12-29T09:34:54.258Z,65.52
2022-12-29T09:37:22.641Z,65.95
2022-12-29T09:39:54.265Z,65.69
2022-12-29T09:42:36.434Z,65.76
2022-12-29T09:45:17.807Z,65.70
2022-12-29T09:47:46.675Z,65.50
2022-12-29T09:50:36.597Z,65.60
2022-12-29T09:53:17.547Z,65.94
2022-12-29T09:55:55.748Z,65.37
2022-12-29T09:59:02.439Z,65.01
2022-12-29T10:01:48.031Z,65.26
2022-12-29T10:04:15.941Z,65.55
2022-12-29T10:10:04.748Z,65.36
2022-12-29T10:12:32.496Z,64.92
2022-12-29T10:15:06.161Z,65.28
2022-12-29T10:17:49.106Z,65.16
2022-12-29T10:20:38.612Z,64.79
2022-12-29T10:23:06.295Z,64.90
2022-12-29T10:25:39.793Z,64.89
2022-12-29T10:28:18.392Z,64.67
2022-12-29T10:30:48.729Z,64.19
2022-12-29T10:33:24.675Z,64.19
2022-12-29T10:35:53.317Z,64.43
2022-12-29T10:38:40.781Z,64.15
2022-12-29T10:41:25.505Z,63.82
2022-12-29T10:43:55.978Z,64.08
2022-12-29T10:46:30.977Z,63.88
2022-12-29T10:48:58.864Z,63.68
2022-12-29T10:51:39.352Z,63.61
2022-12-29T10:54:18.786Z,64.18
2022-12-29T10:57:12.620Z,63.60
2022-12-29T10:59:40.408Z,63.32
2022-12-29T11:02:08.343Z,63.22
2022-12-29T11:05:05.118Z,63.20
2022-12-29T11:07:33.187Z,63.02
2022-12-29T11:10:30.946Z,63.44
2022-12-29T11:13:11.506Z,63.34
2022-12-29T11:15:50.612Z,62.86
2022-12-29T11:18:21.942Z,62.87
2022-12-29T11:20:56.413Z,63.11
2022-12-29T11:23:29.699Z,63.33
2022-12-29T11:26:20.710Z,63.47
2022-12-29T11:29:16.942Z,63.25
2022-12-29T11:31:50.687Z,63.77
2022-12-29T11:34:48.088Z,63.47
2022-12-29T11:37:28.335Z,63.20
2022-12-29T11:40:19.445Z,63.68
2022-12-29T11:42:49.815Z,63.65
2022-12-29T11:45:20.719Z,63.44
2022-12-29T11:47:54.659Z,63.38
2022-12-29T11:50:30.594Z,63.40
2022-12-29T11:53:03.237Z,63.91
2022-12-29T11:55:32.278Z,63.50
2022-12-29T11:58:03.432Z,63.47
2022-12-29T12:00:35.903Z,63.42
2022-12-29T12:03:16.678Z,63.58
2022-12-29T12:05:53.538Z,63.66
2022-12-29T12:08:36.714Z,63.78
2022-12-29T12:11:19.843Z,63.50
2022-12-29T12:14:12.829Z,63.09
2022-12-29T12:16:44.704Z,63.38
2022-12-29T12:19:43.755Z,63.46
2022-12-29T12:22:17.045Z,63.37
2022-12-29T12:25:15.996Z,63.69
2022-12-29T12:28:19.434Z,63.71
2022-12-29T12:30:53.338Z,63.35
2022-12-29T12:33:31.247Z,63.20
2022-12-29T12:36:01.859Z,63.23
2022-12-29T12:38:54.264Z,63.00
2022-12-29T12:41:32.458Z,63.02
2022-12-29T12:44:30.407Z,62.84
2022-12-29T12:47:19.651Z,62.81
2022-12-29T12:49:47.364Z,63.29
2022-12-29T12:52:33.851Z,63.25
2022-12-29T12:55:03.320Z,63.04
2022-12-29T12:57:54.827Z,63.29
2022-12-29T13:00:24.517Z,63.18
2022-12-29T13:03:09.430Z,63.38
2022-12-29T13:05:55.661Z,63.37
2022-12-29T13:08:32.610Z,63.28
2022-12-29T13:11:29.129Z,63.21
2022-12-29T13:13:59.563Z,62.92
2022-12-29T13:16:43.903Z,62.97
2022-12-29T13:19:25.376Z,63.37
2022-12-29T13:22:28.848Z,63.15
2022-12-29T13:25:17.580Z,63.48
2022-12-29T13:28:03.112Z,63.41
2022-12-29T13:30:52.441Z,63.03
2022-12-29T13:33:35.562Z,63.27
2022-12-29T13:36:10.476Z,63.34
2022-12-29T13:38:45.435Z,63.57
2022-12-29T13:41:34.837Z,63.59
2022-12-29T13:44:05.394Z,63.74
2022-12-29T13:46:40.168Z,63.96
2022-12-29T13:49:19.295Z,63.48
2022-12-29T13:51:53.977Z,64.15
2022-12-29T13:54:43.260Z,64.02
2022-12-29T13:57:35.907Z,63.50
2022-12-29T14:00:12.824Z,63.73
2022-12-29T14:03:08.118Z,63.50
2022-12-29T14:05:36.088Z,64.00
2022-12-29T14:08:18.070Z,64.02
2022-12-29T14:10:51.479Z,63.96
2022-12-29T14:13:25.984Z,64.02
2022-12-29T14:15:59.118Z,64.11
2022-12-29T14:18:34.303Z,63.97
2022-12-29T14:21:12.301Z,64.07
2022-12-29T14:23:43.956Z,64.38
2022-12-29T14:26:17.182Z,64.01
2022-12-29T14:28:49.973Z,64.44
2022-12-29T14:31:17.633Z,64.31
2022-12-29T14:34:07.679Z,64.33
2022-12-29T14:36:37.406Z,64.34
2022-12-29T14:39:28.197Z,64.65
2022-12-29T14:42:04.324Z,64.27
2022-12-29T14:44:32.208Z,64.31
2022-12-29T14:47:07.545Z,64.33
2022-12-29T14:49:45.564Z,64.31
2022-12-29T14:52:21.027Z,64.59
2022-12-29T14:54:52.173Z,64.59
2022-12-29T14:57:28.397Z,64.30
2022-12-29T15:00:03.154Z,64.58
2022-12-29T15:02:39.425Z,64.56
2022-12-29T15:05:26.302Z,64.85
2022-12-29T15:07:56.549Z,64.68
2022-12-29T15:10:26.682Z,64.96
2022-12-29T15:12:55.882Z,64.91
2022-12-29T15:15:27.801Z,65.01
2022-12-29T15:17:55.598Z,64.60
2022-12-29T15:20:30.397Z,64.92
2022-12-29T15:23:12.957Z,64.87
2022-12-29T15:26:03.725Z,65.04
2022-12-29T15:28:40.982Z,65.16
2022-12-29T15:31:26.380Z,65.15
2022-12-29T15:34:11.865Z,65.30
2022-12-29T15:36:41.776Z,65.44
2022-12-29T15:39:29.803Z,65.62
2022-12-29T15:42:45.483Z,65.55
2022-12-29T15:45:15.311Z,65.77
2022-12-29T15:47:47.767Z,65.88
2022-12-29T15:50:27.379Z,65.88
2022-12-29T15:52:56.062Z,65.84
2022-12-29T15:55:34.713Z,66.03
2022-12-29T15:58:07.055Z,66.27
2022-12-29T16:00:38.400Z,66.21
2022-12-29T16:03:07.553Z,66.63
2022-12-29T16:05:37.974Z,66.75
2022-12-29T16:08:33.711Z,66.78
2022-12-29T16:11:23.780Z,66.94
2022-12-29T16:13:53.675Z,66.64
2022-12-29T16:16:30.106Z,66.71
2022-12-29T16:18:58.717Z,66.84
2022-12-29T16:21:34.585Z,66.78
2022-12-29T16:24:08.153Z,66.91
2022-12-29T16:26:37.035Z,66.71
2022-12-29T16:29:09.259Z,67.06
2022-12-29T16:32:06.591Z,67.09
2022-12-29T16:34:46.236Z,67.05
2022-12-29T16:37:35.723Z,67.21
2022-12-29T16:40:21.431Z,67.27
2022-12-29T16:42:52.092Z,67.29
2022-12-29T16:45:20.294Z,67.05
2022-12-29T16:47:50.897Z,67.06
2022-12-29T16:50:28.318Z,67.22
2022-12-29T16:52:56.476Z,67.32
2022-12-29T16:55:24.956Z,67.21
2022-12-29T16:57:57.305Z,67.00
2022-12-29T17:00:27.649Z,67.32
2022-12-29T17:02:58.809Z,67.16
2022-12-29T17:05:26.997Z,67.18
2022-12-29T17:07:56.068Z,67.20
2022-12-29T17:10:43.726Z,67.12
2022-12-29T17:13:11.651Z,67.16
2022-12-29T17:15:39.339Z,67.26
2022-12-29T17:18:13.866Z,67.30
2022-12-29T17:20:42.340Z,66.99
2022-12-29T17:23:19.900Z,66.90
2022-12-29T17:25:54.357Z,67.01
2022-12-29T17:28:27.224Z,67.01
2022-12-29T17:30:59.126Z,67.17
2022-12-29T17:33:29.076Z,67.12
2022-12-29T17:35:56.726Z,67.08
2022-12-29T17:38:32.541Z,66.93
2022-12-29T17:41:00.605Z,66.93
2022-12-29T17:43:34.794Z,67.24
2022-12-29T17:46:07.380Z,67.19
2022-12-29T17:48:35.565Z,66.84
2022-12-29T17:51:03.491Z,67.05
2022-12-29T17:53:31.580Z,66.92
2022-12-29T17:55:59.952Z,66.99
2022-12-29T17:58:29.971Z,66.84
2022-12-29T18:00:59.769Z,66.55
2022-12-29T18:03:31.116Z,66.56
2022-12-29T18:05:59.122Z,66.85
2022-12-29T18:08:29.538Z,66.52
2022-12-29T18:10:57.834Z,66.83
2022-12-29T18:13:38.973Z,66.75
2022-12-29T18:16:12.625Z,66.76
2022-12-29T18:18:40.556Z,66.63
2022-12-29T18:21:18.510Z,66.74
2022-12-29T18:23:47.335Z,66.73
2022-12-29T18:26:25.514Z,67.03
2022-12-29T18:28:56.734Z,66.48
2022-12-29T18:31:27.864Z,66.90
2022-12-29T18:33:57.659Z,67.07
2022-12-29T18:36:25.917Z,66.74
2022-12-29T18:38:54.732Z,66.80
2022-12-29T18:41:25.841Z,67.05
2022-12-29T18:43:53.921Z,67.14
2022-12-29T18:46:23.561Z,67.03
2022-12-29T18:48:52.854Z,67.08
2022-12-29T18:51:23.553Z,67.38
2022-12-29T18:53:55.270Z,66.99
2022-12-29T18:56:23.835Z,67.32
2022-12-29T18:58:53.717Z,67.21
2022-12-29T19:01:24.827Z,67.25
2022-12-29T19:03:52.987Z,67.25
2022-12-29T19:06:21.566Z,67.50
2022-12-29T19:08:49.692Z,67.60
2022-12-29T19:11:18.058Z,67.35
2022-12-29T19:13:45.824Z,67.32
2022-12-29T19:16:20.993Z,67.49
2022-12-29T19:19:05.752Z,67.44
2022-12-29T19:21:37.184Z,67.52
2022-12-29T19:24:06.251Z,67.59
2022-12-29T19:26:36.787Z,67.39
2022-12-29T19:29:06.937Z,67.51
2022-12-29T19:31:35.283Z,67.49
2022-12-29T19:34:03.606Z,67.62
2022-12-29T19:36:31.716Z,67.38
2022-12-29T19:38:59.691Z,67.50
2022-12-29T19:41:27.688Z,67.57
2022-12-29T19:43:55.762Z,67.47
2022-12-29T19:46:24.611Z,67.48
2022-12-29T19:48:54.986Z,67.08
2022-12-29T19:51:22.653Z,67.22
2022-12-29T19:53:50.464Z,67.19
2022-12-29T19:56:18.560Z,67.06
2022-12-29T19:58:47.664Z,67.28
2022-12-29T20:01:19.234Z,67.46
2022-12-29T20:03:48.644Z,66.81
2022-12-29T20:06:17.307Z,66.55
2022-12-29T20:08:45.160Z,66.92
2022-12-29T20:11:16.089Z,66.69
2022-12-29T20:13:44.444Z,67.11
2022-12-29T20:16:15.676Z,66.80
2022-12-29T20:18:44.011Z,66.93
2022-12-29T20:21:20.422Z,67.11
2022-12-29T20:23:50.013Z,66.75
2022-12-29T20:26:27.319Z,66.99
2022-12-29T20:28:57.461Z,67.10
2022-12-29T20:31:32.714Z,66.92
2022-12-29T20:34:00.578Z,67.08
2022-12-29T20:36:31.798Z,67.15
2022-12-29T20:39:04.392Z,67.05
2022-12-29T20:41:32.769Z,67.08
2022-12-29T20:44:00.993Z,67.00
2022-12-29T20:46:35.209Z,67.25
2022-12-29T20:49:05.518Z,67.14
2022-12-29T20:51:59.656Z,67.15
2022-12-29T20:54:22.529Z,67.27
2022-12-29T20:56:50.687Z,67.45
2022-12-29T20:59:33.763Z,67.74
2022-12-29T21:02:01.696Z,67.52
2022-12-29T21:04:43.640Z,67.85
2022-12-29T21:07:20.113Z,67.87
2022-12-29T21:09:48.389Z,67.91
2022-12-29T21:12:16.131Z,67.80
2022-12-29T21:14:45.827Z,67.82
2022-12-29T21:17:13.951Z,67.96
2022-12-29T21:19:41.730Z,67.81
2022-12-29T21:22:09.500Z,67.55
2022-12-29T21:24:38.763Z,67.91
2022-12-29T21:27:06.691Z,67.98
2022-12-29T21:29:34.393Z,67.74
2022-12-29T21:32:06.257Z,67.98
2022-12-29T21:34:35.756Z,67.73
2022-12-29T21:37:03.926Z,67.76
2022-12-29T21:39:31.700Z,67.76
2022-12-29T21:42:01.744Z,67.57
2022-12-29T21:44:48.315Z,67.75
2022-12-29T21:47:16.063Z,67.33
2022-12-29T21:49:43.807Z,67.70
2022-12-29T21:52:11.489Z,67.45
2022-12-29T21:54:57.897Z,67.36
2022-12-29T21:57:44.207Z,67.43
2022-12-29T22:00:30.979Z,67.36
2022-12-29T22:03:22.921Z,67.20
2022-12-29T22:06:11.337Z,67.39
2022-12-29T22:08:58.707Z,67.32
2022-12-29T22:11:45.221Z,67.56
2022-12-29T22:14:12.974Z,67.37
2022-12-29T22:16:40.845Z,67.16
2022-12-29T22:19:10.663Z,67.54
2022-12-29T22:21:38.603Z,67.63
2022-12-29T22:24:08.506Z,67.43
2022-12-29T22:26:36.116Z,67.60
2022-12-29T22:29:04.057Z,67.25
2022-12-29T22:31:32.857Z,67.42
2022-12-29T22:34:03.088Z,67.35
2022-12-29T22:36:32.451Z,67.23
2022-12-29T22:39:00.374Z,67.37
2022-12-29T22:41:28.073Z,67.30
2022-12-29T22:43:55.789Z,67.09
2022-12-29T22:46:23.604Z,67.02
2022-12-29T22:48:52.213Z,67.18
2022-12-29T22:51:19.970Z,67.17
2022-12-29T22:53:51.621Z,67.07
2022-12-29T22:56:19.488Z,66.99
2022-12-29T22:58:48.513Z,66.97
2022-12-29T23:01:19.274Z,66.92
2022-12-29T23:03:47.297Z,67.06
2022-12-29T23:06:16.756Z,67.26
2022-12-29T23:08:44.824Z,67.17
2022-12-29T23:11:13.444Z,66.96
2022-12-29T23:13:42.318Z,66.80
2022-12-29T23:16:10.297Z,67.05
2022-12-29T23:18:38.454Z,66.87
2022-12-29T23:21:06.634Z,66.82
2022-12-29T23:23:53.206Z,66.68
2022-12-29T23:26:24.175Z,66.83
2022-12-29T23:28:59.509Z,66.53
2022-12-29T23:31:28.442Z,66.99
2022-12-29T23:33:56.703Z,66.93
2022-12-29T23:36:24.831Z,66.74
2022-12-29T23:38:52.510Z,66.70
2022-12-29T23:41:20.205Z,66.95
2022-12-29T23:43:48.200Z,66.94
2022-12-29T23:46:18.584Z,67.21
2022-12-29T23:48:46.400Z,66.97
2022-12-29T23:51:14.483Z,67.13
2022-12-29T23:53:43.905Z,67.35
2022-12-29T23:56:14.339Z,66.91
2022-12-29T23:58:42.107Z,67.08
